Time;durP1;ratioP1;P1;durP2;ratioP2;P2;SDS_P1;SDS_P2;PMS_P1;PMS_P2;Temp;Humidity;BMP_temperature;BMP_pressure;BME280_temperature;BME280_humidity;BME280_pressure;Samples;Min_cycle;Max_cycle;Signal;HPM_P1;HPM_P2
2022/12/04 00:01:14;;;;;;;30.37;27.50;;;3.90;99.90;;;;;;4990167;28;20953;-74
2022/12/04 00:03:42;;;;;;;30.37;27.37;;;3.90;99.90;;;;;;4989579;28;20493;-75
2022/12/04 00:06:12;;;;;;;29.97;27.07;;;3.90;99.90;;;;;;4990295;28;20450;-76
2022/12/04 00:08:39;;;;;;;30.17;27.27;;;3.90;99.90;;;;;;4990265;28;20444;-76
2022/12/04 00:11:08;;;;;;;28.97;26.17;;;3.90;99.90;;;;;;4990149;28;20815;-75
2022/12/04 00:13:35;;;;;;;30.40;26.77;;;3.90;99.90;;;;;;4989908;28;20514;-75
2022/12/04 00:16:04;;;;;;;30.27;27.37;;;3.90;99.90;;;;;;4989629;28;21036;-74
2022/12/04 00:18:30;;;;;;;28.77;26.10;;;3.90;99.90;;;;;;4989141;28;20485;-74
2022/12/04 00:20:57;;;;;;;28.63;25.73;;;4.00;99.90;;;;;;4990989;28;20454;-74
2022/12/04 00:23:25;;;;;;;27.43;25.03;;;4.00;99.90;;;;;;4993604;28;20454;-75
2022/12/04 00:25:52;;;;;;;28.67;25.70;;;4.10;99.90;;;;;;4993574;28;20454;-75
2022/12/04 00:28:19;;;;;;;29.77;26.93;;;3.90;99.90;;;;;;4993114;28;20450;-75
2022/12/04 00:30:46;;;;;;;31.27;27.63;;;3.90;99.90;;;;;;4993239;28;20764;-75
2022/12/04 00:33:13;;;;;;;30.43;27.43;;;4.00;99.90;;;;;;4993279;28;20448;-75
2022/12/04 00:35:40;;;;;;;28.37;25.50;;;4.00;99.90;;;;;;4993430;28;20447;-75
2022/12/04 00:38:07;;;;;;;28.00;25.40;;;4.00;99.90;;;;;;4993463;28;20482;-75
2022/12/04 00:40:35;;;;;;;29.00;26.30;;;4.00;99.90;;;;;;4993240;28;20461;-75
2022/12/04 00:43:03;;;;;;;29.73;26.80;;;3.90;99.90;;;;;;4992937;28;20462;-75
2022/12/04 00:45:30;;;;;;;28.97;26.07;;;3.90;99.90;;;;;;4993153;28;20624;-75
2022/12/04 00:47:56;;;;;;;27.73;24.93;;;3.90;99.90;;;;;;4992469;28;20450;-74
2022/12/04 00:50:23;;;;;;;29.67;26.83;;;4.00;99.90;;;;;;4992353;28;20931;-74
2022/12/04 00:52:50;;;;;;;26.47;23.80;;;4.10;99.90;;;;;;4992983;28;20443;-73
2022/12/04 00:55:17;;;;;;;30.20;27.10;;;4.10;99.90;;;;;;4992831;28;20451;-73
2022/12/04 00:57:45;;;;;;;27.97;25.37;;;4.10;99.90;;;;;;4992776;28;20475;-75
2022/12/04 01:00:12;;;;;;;26.47;23.97;;;4.10;99.90;;;;;;4992641;28;20477;-74
2022/12/04 01:02:39;;;;;;;27.60;25.00;;;4.10;99.90;;;;;;4992793;28;20473;-75
2022/12/04 01:05:06;;;;;;;29.07;26.07;;;4.30;99.90;;;;;;4992832;28;20479;-75
2022/12/04 01:07:33;;;;;;;26.50;24.00;;;4.20;99.90;;;;;;4992460;28;20446;-76
2022/12/04 01:10:00;;;;;;;27.77;25.10;;;4.10;99.90;;;;;;4992592;28;20821;-75
2022/12/04 01:12:27;;;;;;;29.20;26.23;;;4.10;99.90;;;;;;4992606;28;20457;-75
2022/12/04 01:14:55;;;;;;;27.90;25.10;;;4.20;99.90;;;;;;4992644;28;20449;-73
2022/12/04 01:17:21;;;;;;;27.57;24.90;;;4.20;99.90;;;;;;4992638;28;20469;-75
2022/12/04 01:20:23;;;;;;;28.50;25.47;;;4.20;99.90;;;;;;4992378;28;20485;-76
2022/12/04 01:22:51;;;;;;;26.97;24.43;;;4.10;99.90;;;;;;4992243;28;20516;-75
2022/12/04 01:25:17;;;;;;;28.83;25.73;;;4.20;99.90;;;;;;4992233;28;20461;-75
2022/12/04 01:27:44;;;;;;;26.33;23.93;;;4.10;99.90;;;;;;4992216;28;20457;-75
2022/12/04 01:30:12;;;;;;;27.13;24.53;;;3.90;99.90;;;;;;4992230;28;20462;-75
2022/12/04 01:32:39;;;;;;;28.73;25.87;;;4.00;99.90;;;;;;4992254;28;20462;-75
2022/12/04 01:35:06;;;;;;;27.67;25.27;;;4.10;99.90;;;;;;4992506;28;20442;-75
2022/12/04 01:37:33;;;;;;;30.97;26.53;;;4.10;99.90;;;;;;4992281;28;20451;-76
2022/12/04 01:40:01;;;;;;;27.40;24.80;;;4.10;99.90;;;;;;4991894;28;20516;-75
2022/12/04 01:42:28;;;;;;;28.77;25.87;;;4.20;99.90;;;;;;4991672;28;20457;-75
2022/12/04 01:45:36;;;;;;;26.50;24.03;;;4.10;99.90;;;;;;4991876;28;20970;-74
2022/12/04 01:48:10;;;;;;;30.13;27.30;;;4.10;99.90;;;;;;4991988;28;20472;-74
2022/12/04 01:50:37;;;;;;;27.90;25.30;;;4.20;99.90;;;;;;4991912;28;20455;-74
2022/12/04 01:53:04;;;;;;;27.20;24.60;;;4.20;99.90;;;;;;4991572;28;20522;-73
2022/12/04 01:58:09;;;;;;;28.80;26.23;;;4.20;99.90;;;;;;5622264;23;21125;-71
2022/12/04 02:00:36;;;;;;;27.37;24.57;;;4.10;99.90;;;;;;4989003;28;20477;-71
2022/12/04 02:03:03;;;;;;;26.57;24.17;;;4.10;99.90;;;;;;4990921;28;20474;-69
2022/12/04 02:05:30;;;;;;;27.93;25.43;;;4.20;99.90;;;;;;4991050;28;20446;-71
2022/12/04 02:08:00;;;;;;;27.70;24.73;;;4.10;99.90;;;;;;4991051;28;20464;-70
2022/12/04 02:10:42;;;;;;;27.97;25.03;;;4.20;99.90;;;;;;4990870;28;20453;-71
2022/12/04 02:13:16;;;;;;;29.10;26.20;;;4.30;99.90;;;;;;4990836;28;20453;-71
2022/12/04 02:15:50;;;;;;;26.13;23.93;;;4.20;99.90;;;;;;4991153;28;20452;-69
2022/12/04 02:18:24;;;;;;;28.10;25.30;;;4.30;99.90;;;;;;4990550;28;20485;-70
2022/12/04 02:28:47;;;;;;;29.50;26.70;;;4.40;99.90;;;;;;5597324;23;20502;-75
2022/12/04 02:31:19;;;;;;;28.50;25.90;;;4.20;99.90;;;;;;4971109;28;20477;-75
2022/12/04 02:33:56;;;;;;;25.83;23.43;;;4.30;99.90;;;;;;4971077;28;20447;-76
2022/12/04 02:36:27;;;;;;;29.63;26.67;;;4.30;99.90;;;;;;4970652;28;21067;-76
2022/12/04 02:38:58;;;;;;;28.47;25.90;;;4.20;99.90;;;;;;4970548;28;20514;-75
2022/12/04 02:41:29;;;;;;;31.27;27.97;;;4.10;99.90;;;;;;4970770;28;20450;-76
2022/12/04 02:44:01;;;;;;;29.47;26.47;;;4.00;99.90;;;;;;4970173;28;20802;-76
2022/12/04 02:46:33;;;;;;;29.63;26.80;;;4.10;99.90;;;;;;4970688;28;20459;-75
2022/12/04 02:49:03;;;;;;;29.27;26.27;;;4.20;99.90;;;;;;4970837;28;20463;-76
2022/12/04 02:51:35;;;;;;;27.80;25.20;;;4.20;99.90;;;;;;4970611;28;20455;-76
2022/12/04 02:54:06;;;;;;;29.97;27.07;;;4.20;99.90;;;;;;4970869;28;20924;-76
2022/12/04 02:56:39;;;;;;;27.90;25.40;;;4.10;99.90;;;;;;4970616;28;20565;-75
2022/12/04 02:59:11;;;;;;;29.60;26.70;;;4.20;99.90;;;;;;4970170;28;20489;-76
2022/12/04 03:01:42;;;;;;;30.57;27.37;;;4.10;99.90;;;;;;4970366;28;20454;-75
2022/12/04 03:04:15;;;;;;;30.70;27.50;;;4.10;99.90;;;;;;4970236;28;20469;-75
2022/12/04 03:06:45;;;;;;;32.07;28.87;;;4.10;99.90;;;;;;4970338;28;20456;-75
2022/12/04 03:09:17;;;;;;;30.70;27.60;;;4.30;99.90;;;;;;4970128;28;20441;-76
2022/12/04 03:11:49;;;;;;;28.77;26.13;;;4.30;99.90;;;;;;4969990;28;20458;-76
2022/12/04 03:14:22;;;;;;;31.50;28.27;;;4.30;99.90;;;;;;4970444;28;20459;-75
2022/12/04 03:16:52;;;;;;;28.40;25.80;;;4.20;99.90;;;;;;4970201;28;20456;-75
2022/12/04 03:19:24;;;;;;;29.40;26.43;;;4.10;99.90;;;;;;4970067;28;21010;-75
2022/12/04 03:21:55;;;;;;;29.60;26.70;;;4.00;99.90;;;;;;4969923;28;20441;-75
2022/12/04 03:24:27;;;;;;;30.80;28.00;;;4.00;99.90;;;;;;4970050;28;20853;-75
2022/12/04 03:27:01;;;;;;;29.80;26.83;;;4.10;99.90;;;;;;4969722;28;21013;-75
2022/12/04 03:29:33;;;;;;;30.60;27.80;;;4.20;99.90;;;;;;4984955;28;20504;-76
2022/12/04 03:32:06;;;;;;;32.83;29.80;;;4.20;99.90;;;;;;4989624;28;20458;-76
2022/12/04 03:34:38;;;;;;;30.63;27.77;;;4.30;99.90;;;;;;4990121;28;20450;-75
2022/12/04 03:37:15;;;;;;;29.20;26.40;;;4.40;99.90;;;;;;4989789;28;20463;-75
2022/12/04 03:39:50;;;;;;;31.13;27.83;;;4.40;99.90;;;;;;4989562;28;20492;-75
2022/12/04 03:42:23;;;;;;;32.47;29.03;;;4.30;99.90;;;;;;4990143;28;20456;-76
2022/12/04 03:44:59;;;;;;;31.10;28.00;;;4.40;99.90;;;;;;4989755;28;20444;-76
2022/12/04 03:47:31;;;;;;;30.80;27.70;;;4.40;99.90;;;;;;4989393;28;20448;-76
2022/12/04 03:50:01;;;;;;;30.70;27.50;;;4.40;99.90;;;;;;4989195;28;20793;-75
2022/12/04 03:52:34;;;;;;;29.57;26.67;;;4.20;99.90;;;;;;4989636;28;20447;-75
2022/12/04 03:55:07;;;;;;;32.47;29.20;;;4.20;99.90;;;;;;4989903;28;20478;-74
2022/12/04 03:57:39;;;;;;;32.90;30.03;;;4.30;99.90;;;;;;4993808;28;20447;-74
2022/12/04 04:00:11;;;;;;;31.97;28.77;;;4.30;99.90;;;;;;4993487;28;20518;-74
2022/12/04 04:02:44;;;;;;;30.10;27.27;;;4.30;99.90;;;;;;4993727;28;20568;-74
2022/12/04 04:05:13;;;;;;;32.90;29.37;;;4.20;99.90;;;;;;4993866;28;20967;-75
2022/12/04 04:07:43;;;;;;;34.60;31.00;;;4.10;99.90;;;;;;4993206;28;20456;-74
2022/12/04 04:10:14;;;;;;;32.20;27.30;;;4.10;99.90;;;;;;4993414;28;20440;-75
2022/12/04 04:12:45;;;;;;;30.57;27.43;;;4.10;99.90;;;;;;4993257;28;20463;-75
2022/12/04 04:26:24;;;;;;;30.60;27.50;;;3.90;99.90;;;;;;4992984;28;20691;-74
2022/12/04 04:28:51;;;;;;;33.07;29.53;;;3.90;99.90;;;;;;4992846;28;20481;-75
2022/12/04 04:31:25;;;;;;;30.20;27.00;;;4.00;99.90;;;;;;4992932;28;20457;-75
2022/12/04 04:34:04;;;;;;;28.00;25.13;;;4.00;99.90;;;;;;4992158;28;20954;-74
2022/12/04 04:36:39;;;;;;;28.13;25.47;;;3.90;99.90;;;;;;4992185;28;20463;-74
2022/12/04 04:39:14;;;;;;;30.17;26.97;;;3.80;99.90;;;;;;4991285;28;20586;-74
2022/12/04 04:41:45;;;;;;;30.60;27.60;;;3.80;99.90;;;;;;4991892;28;20464;-76
2022/12/04 04:44:17;;;;;;;28.17;25.57;;;3.80;99.90;;;;;;4992121;28;20460;-74
2022/12/04 04:46:50;;;;;;;27.40;24.57;;;3.80;99.90;;;;;;4992189;28;20461;-75
2022/12/04 04:49:19;;;;;;;30.13;27.23;;;3.80;99.90;;;;;;4992242;28;20472;-74
2022/12/04 04:51:47;;;;;;;27.67;25.07;;;3.80;99.90;;;;;;4992322;28;20454;-74
2022/12/04 04:54:16;;;;;;;30.07;25.40;;;3.80;99.90;;;;;;4992535;28;20445;-75
2022/12/04 04:56:44;;;;;;;29.20;26.13;;;3.90;99.90;;;;;;4992103;28;20458;-74
2022/12/04 04:59:11;;;;;;;25.47;23.13;;;4.00;99.90;;;;;;4991676;28;20484;-74
2022/12/04 05:01:39;;;;;;;31.03;27.87;;;3.90;99.90;;;;;;4991668;28;20497;-74
2022/12/04 05:04:08;;;;;;;28.60;25.83;;;4.00;99.90;;;;;;4991410;28;20926;-74
2022/12/04 05:06:35;;;;;;;28.20;25.57;;;4.00;99.90;;;;;;4991051;28;20453;-74
2022/12/04 05:09:02;;;;;;;28.50;25.67;;;4.00;99.90;;;;;;4991663;28;20458;-74
2022/12/04 05:11:29;;;;;;;28.60;25.90;;;4.10;99.90;;;;;;4991456;28;20541;-74
2022/12/04 05:13:55;;;;;;;27.40;24.70;;;4.10;99.90;;;;;;4991460;28;20454;-74
2022/12/04 05:16:23;;;;;;;29.87;26.90;;;4.10;99.90;;;;;;4991315;28;20450;-74
2022/12/04 05:21:32;;;;;;;26.93;24.17;;;4.00;99.90;;;;;;4990337;28;20439;-74
2022/12/04 05:23:58;;;;;;;29.40;26.57;;;3.80;99.90;;;;;;4991156;28;20479;-75
2022/12/04 05:26:25;;;;;;;27.67;25.00;;;3.90;99.90;;;;;;4990953;28;20468;-75
2022/12/04 05:28:52;;;;;;;28.77;25.97;;;3.80;99.90;;;;;;4990595;28;20473;-75
2022/12/04 05:31:19;;;;;;;26.03;23.73;;;3.90;99.90;;;;;;4991259;28;20454;-74
2022/12/04 05:33:45;;;;;;;28.03;25.23;;;3.80;99.90;;;;;;4991138;28;20772;-75
2022/12/04 05:36:13;;;;;;;29.73;26.73;;;3.80;99.90;;;;;;4991001;28;20446;-75
2022/12/04 05:39:14;;;;;;;28.80;26.20;;;3.80;99.90;;;;;;4991080;28;20451;-75
2022/12/04 05:41:41;;;;;;;30.37;25.43;;;3.90;99.90;;;;;;4930659;29;20994;-75
2022/12/04 05:44:08;;;;;;;27.63;24.83;;;4.00;99.90;;;;;;4988171;28;20736;-75
2022/12/04 05:46:34;;;;;;;28.30;25.47;;;4.10;99.90;;;;;;4991032;28;20816;-73
2022/12/04 05:49:01;;;;;;;28.40;25.57;;;4.10;99.90;;;;;;4991287;28;20810;-73
2022/12/04 05:51:28;;;;;;;27.17;24.30;;;4.10;99.90;;;;;;4990718;28;20535;-73
2022/12/04 05:53:55;;;;;;;26.17;23.83;;;4.10;99.90;;;;;;4990788;28;20978;-73
2022/12/04 05:56:23;;;;;;;27.83;25.43;;;4.00;99.90;;;;;;4990492;28;20545;-73
2022/12/04 05:58:49;;;;;;;27.73;25.10;;;3.90;99.90;;;;;;4990812;28;20456;-73
2022/12/04 06:01:18;;;;;;;29.27;26.57;;;4.00;99.90;;;;;;4990762;28;20443;-73
2022/12/04 06:03:45;;;;;;;27.17;24.77;;;4.10;99.90;;;;;;4990823;28;20453;-73
2022/12/04 06:06:13;;;;;;;26.40;23.80;;;4.10;99.90;;;;;;4990616;28;20507;-74
2022/12/04 06:08:40;;;;;;;27.23;24.53;;;4.10;99.90;;;;;;4990462;28;20780;-73
2022/12/04 06:11:11;;;;;;;28.07;25.20;;;4.10;99.90;;;;;;4990371;28;20448;-73
2022/12/04 06:13:41;;;;;;;26.03;23.50;;;4.00;99.90;;;;;;4990255;28;20458;-74
2022/12/04 06:16:13;;;;;;;27.90;25.30;;;4.00;99.90;;;;;;4990280;28;20453;-74
2022/12/04 06:18:40;;;;;;;27.97;25.03;;;4.10;99.90;;;;;;4989469;28;20673;-75
2022/12/04 06:21:07;;;;;;;29.10;26.03;;;4.20;99.90;;;;;;4990330;28;20548;-75
2022/12/04 06:23:33;;;;;;;28.27;25.40;;;4.30;99.90;;;;;;4990543;28;20507;-75
2022/12/04 06:26:04;;;;;;;26.13;23.70;;;4.20;99.90;;;;;;4990205;28;20962;-75
2022/12/04 06:28:31;;;;;;;27.53;24.97;;;4.30;99.90;;;;;;4990236;28;20482;-75
2022/12/04 06:31:02;;;;;;;26.13;23.57;;;4.40;99.90;;;;;;4989997;28;20447;-74
2022/12/04 06:33:29;;;;;;;28.83;25.80;;;4.40;99.90;;;;;;4990374;28;20450;-75
2022/12/04 06:36:00;;;;;;;28.00;25.20;;;4.50;99.90;;;;;;4990057;28;20478;-75
2022/12/04 06:38:26;;;;;;;26.77;24.30;;;4.70;99.90;;;;;;4989876;28;20447;-76
2022/12/04 06:40:53;;;;;;;25.53;23.17;;;4.70;99.90;;;;;;4989834;28;20490;-75
2022/12/04 06:43:20;;;;;;;27.27;24.50;;;4.70;99.90;;;;;;4989534;28;20856;-75
2022/12/04 06:45:47;;;;;;;27.50;24.80;;;4.50;99.90;;;;;;4990051;28;20453;-75
2022/12/04 06:48:15;;;;;;;27.47;24.70;;;4.60;99.90;;;;;;4989629;28;20820;-75
2022/12/04 06:50:42;;;;;;;27.43;24.90;;;4.50;99.90;;;;;;4989537;28;20476;-75
2022/12/04 06:53:08;;;;;;;27.23;24.60;;;4.50;99.90;;;;;;4989626;28;20462;-75
2022/12/04 06:55:35;;;;;;;27.57;24.93;;;4.60;99.90;;;;;;4989644;28;20933;-75
2022/12/04 06:58:02;;;;;;;25.00;22.93;;;4.60;99.90;;;;;;4989849;28;20457;-75
2022/12/04 07:00:28;;;;;;;26.80;24.00;;;4.50;99.90;;;;;;4989512;28;20483;-75
2022/12/04 07:02:55;;;;;;;26.53;23.93;;;4.50;99.90;;;;;;4989611;28;20484;-75
2022/12/04 07:05:23;;;;;;;29.33;24.73;;;4.60;99.90;;;;;;4989577;28;20462;-75
2022/12/04 07:07:50;;;;;;;27.37;24.77;;;4.50;99.90;;;;;;4989462;28;20458;-74
2022/12/04 07:10:17;;;;;;;27.07;24.40;;;4.60;99.90;;;;;;4989554;28;20443;-76
2022/12/04 07:12:44;;;;;;;25.53;23.20;;;4.40;99.90;;;;;;4989095;28;20540;-75
2022/12/04 07:15:11;;;;;;;28.07;25.10;;;4.40;99.90;;;;;;4989036;28;20453;-75
2022/12/04 07:17:37;;;;;;;27.50;25.17;;;4.30;99.90;;;;;;4989297;28;20465;-75
2022/12/04 07:20:05;;;;;;;26.13;23.73;;;4.20;99.90;;;;;;4989274;28;20485;-76
2022/12/04 07:22:33;;;;;;;26.73;24.33;;;4.30;99.90;;;;;;4989480;28;20457;-76
2022/12/04 07:25:00;;;;;;;26.07;23.67;;;4.30;99.90;;;;;;4989072;28;20458;-75
2022/12/04 07:27:29;;;;;;;26.17;23.60;;;4.50;99.90;;;;;;4988948;28;20481;-76
2022/12/04 07:29:56;;;;;;;26.53;24.23;;;4.50;99.90;;;;;;4988434;28;20477;-76
2022/12/04 07:32:23;;;;;;;27.47;24.87;;;4.50;99.90;;;;;;4988936;28;20454;-75
2022/12/04 07:34:50;;;;;;;26.67;24.17;;;4.70;99.90;;;;;;4987884;28;20808;-75
2022/12/04 07:37:16;;;;;;;26.03;23.33;;;4.70;99.90;;;;;;5003720;28;20461;-76
2022/12/04 07:39:44;;;;;;;28.27;25.27;;;4.80;99.90;;;;;;5008529;28;20485;-76
2022/12/04 07:42:11;;;;;;;28.20;25.37;;;4.90;99.90;;;;;;5008200;28;20456;-75
2022/12/04 07:44:38;;;;;;;28.40;25.80;;;4.90;99.90;;;;;;5004741;28;20551;-75
2022/12/04 07:47:05;;;;;;;27.13;24.33;;;4.90;99.90;;;;;;5008512;28;20468;-74
2022/12/04 07:49:31;;;;;;;27.97;25.00;;;4.90;99.90;;;;;;5008594;28;20791;-75
2022/12/04 07:51:59;;;;;;;27.80;24.83;;;5.00;99.90;;;;;;5008543;28;20540;-75
2022/12/04 07:54:25;;;;;;;26.27;23.50;;;5.00;99.90;;;;;;4996077;28;20454;-75
2022/12/04 07:56:53;;;;;;;26.73;24.07;;;5.10;99.90;;;;;;4987513;28;20447;-75
2022/12/04 07:59:20;;;;;;;25.77;23.43;;;5.20;99.90;;;;;;4988003;28;20462;-75
2022/12/04 08:01:47;;;;;;;28.70;25.67;;;5.20;99.90;;;;;;4988017;28;20486;-75
2022/12/04 08:04:14;;;;;;;27.33;24.73;;;5.20;99.90;;;;;;4987792;28;20458;-75
2022/12/04 08:06:41;;;;;;;26.20;23.67;;;5.00;99.90;;;;;;4987792;28;20554;-75
2022/12/04 08:09:08;;;;;;;25.07;22.63;;;5.00;99.90;;;;;;4987676;28;20462;-75
2022/12/04 08:11:34;;;;;;;26.03;23.43;;;5.00;99.90;;;;;;4987403;28;20438;-76
2022/12/04 08:14:04;;;;;;;26.10;23.70;;;5.00;99.90;;;;;;4985939;28;20451;-75
2022/12/04 08:16:33;;;;;;;27.03;24.53;;;5.10;99.90;;;;;;4985733;28;20815;-76
2022/12/04 08:18:59;;;;;;;27.30;24.37;;;5.20;99.90;;;;;;4988436;28;20449;-75
2022/12/04 08:21:29;;;;;;;26.60;24.03;;;5.20;99.90;;;;;;4987751;28;20479;-76
2022/12/04 08:23:59;;;;;;;26.17;23.73;;;5.20;99.90;;;;;;4987015;28;20446;-75
2022/12/04 08:26:28;;;;;;;29.57;26.57;;;5.20;99.90;;;;;;4986901;28;20461;-76
2022/12/04 08:28:57;;;;;;;28.63;26.00;;;5.40;99.90;;;;;;4986975;28;20585;-77
2022/12/04 08:31:27;;;;;;;25.63;22.83;;;5.30;99.90;;;;;;4987141;28;20441;-77
2022/12/04 08:33:56;;;;;;;25.27;23.10;;;5.20;99.90;;;;;;4984532;28;20449;-77
2022/12/04 08:36:23;;;;;;;26.03;23.70;;;5.30;99.90;;;;;;4987399;28;20950;-77
2022/12/04 08:38:51;;;;;;;25.20;22.90;;;5.40;99.90;;;;;;4987454;28;20779;-76
2022/12/04 08:41:20;;;;;;;25.17;22.70;;;5.40;99.90;;;;;;4987536;28;20566;-74
2022/12/04 08:43:46;;;;;;;24.50;22.30;;;5.30;99.90;;;;;;4990782;28;20609;-77
2022/12/04 08:46:16;;;;;;;26.13;23.57;;;5.30;99.90;;;;;;4988370;28;20749;-75
2022/12/04 08:48:45;;;;;;;24.53;22.03;;;5.40;99.90;;;;;;4990599;28;20443;-75
2022/12/04 08:51:13;;;;;;;25.23;23.00;;;5.60;99.90;;;;;;4990448;28;20522;-75
2022/12/04 08:53:40;;;;;;;25.60;23.10;;;5.70;99.90;;;;;;4990546;28;20449;-74
2022/12/04 08:56:07;;;;;;;23.93;21.73;;;5.70;99.90;;;;;;4990345;28;20464;-75
2022/12/04 08:58:34;;;;;;;25.47;22.90;;;5.50;99.90;;;;;;4988101;28;20451;-75
2022/12/04 09:01:04;;;;;;;25.80;23.40;;;5.60;99.90;;;;;;4990866;28;21004;-75
2022/12/04 09:03:31;;;;;;;24.60;22.30;;;5.40;99.90;;;;;;4990649;28;20438;-76
2022/12/04 09:06:00;;;;;;;25.13;22.83;;;5.30;99.90;;;;;;4990616;28;20435;-76
2022/12/04 09:08:28;;;;;;;25.63;23.33;;;5.20;99.90;;;;;;4991266;28;20446;-76
2022/12/04 09:10:54;;;;;;;26.83;24.30;;;5.10;99.90;;;;;;4990743;28;20535;-74
2022/12/04 09:13:21;;;;;;;26.60;22.37;;;5.10;99.90;;;;;;4989962;28;20461;-74
2022/12/04 09:15:48;;;;;;;27.57;24.97;;;4.90;99.90;;;;;;4989859;28;20446;-75
2022/12/04 09:18:15;;;;;;;27.50;24.40;;;4.90;99.90;;;;;;4989573;28;20441;-75
2022/12/04 09:20:41;;;;;;;25.80;23.40;;;5.00;99.90;;;;;;4989838;28;20479;-75
2022/12/04 09:23:09;;;;;;;27.83;25.10;;;4.90;99.90;;;;;;4990168;28;20785;-75
2022/12/04 09:25:37;;;;;;;27.30;24.70;;;4.90;99.90;;;;;;4987809;28;20450;-76
2022/12/04 09:28:04;;;;;;;26.07;23.37;;;4.90;99.90;;;;;;4989491;28;20474;-73
2022/12/04 09:30:31;;;;;;;28.30;25.57;;;4.80;99.90;;;;;;4989669;28;20457;-75
2022/12/04 09:32:58;;;;;;;26.03;23.63;;;4.70;99.90;;;;;;4987186;28;20465;-76
2022/12/04 09:35:25;;;;;;;26.80;24.17;;;4.80;99.90;;;;;;4989607;28;20450;-74
2022/12/04 09:37:52;;;;;;;28.70;25.90;;;4.80;99.90;;;;;;4989029;28;20470;-75
2022/12/04 09:40:26;;;;;;;28.90;25.90;;;4.90;99.90;;;;;;4988540;28;20895;-75
2022/12/04 09:43:01;;;;;;;28.67;25.63;;;4.80;99.90;;;;;;4988847;28;21010;-75
2022/12/04 09:45:33;;;;;;;28.50;25.70;;;4.90;99.90;;;;;;4990726;28;20823;-75
2022/12/04 09:48:01;;;;;;;28.23;25.37;;;4.90;99.90;;;;;;4990498;28;20809;-75
2022/12/04 09:50:36;;;;;;;29.03;26.00;;;5.00;99.90;;;;;;4990600;28;20472;-75
2022/12/04 09:53:06;;;;;;;28.57;25.67;;;4.90;99.90;;;;;;4990448;28;20450;-74
2022/12/04 09:55:40;;;;;;;28.93;26.17;;;5.00;99.90;;;;;;4990580;28;20645;-75
2022/12/04 09:58:12;;;;;;;29.13;26.10;;;5.00;99.90;;;;;;4990197;28;20461;-73
2022/12/04 10:00:42;;;;;;;28.43;25.77;;;5.00;99.90;;;;;;4992277;28;20505;-75
2022/12/04 10:03:15;;;;;;;28.40;25.60;;;5.10;99.90;;;;;;4995733;28;20796;-75
2022/12/04 10:05:53;;;;;;;29.10;26.33;;;5.20;99.90;;;;;;4998615;28;20953;-75
2022/12/04 10:08:22;;;;;;;27.83;25.10;;;5.10;99.90;;;;;;4998538;28;20439;-75
2022/12/04 10:10:59;;;;;;;29.17;26.27;;;5.10;99.90;;;;;;4995337;28;20850;-74
2022/12/04 10:13:55;;;;;;;31.70;27.30;;;5.00;99.90;;;;;;4998035;28;20465;-75
2022/12/04 10:16:28;;;;;;;30.13;27.20;;;5.20;99.90;;;;;;4996446;28;20454;-74
2022/12/04 10:19:03;;;;;;;31.40;28.20;;;5.20;99.90;;;;;;4996765;28;20442;-74
2022/12/04 10:21:42;;;;;;;30.67;27.70;;;5.20;99.90;;;;;;4995136;28;20501;-75
2022/12/04 10:24:20;;;;;;;30.40;27.40;;;5.10;99.90;;;;;;4995310;28;20928;-75
2022/12/04 10:26:49;;;;;;;29.37;26.37;;;5.10;99.90;;;;;;4997419;28;20465;-76
2022/12/04 10:29:20;;;;;;;29.47;26.70;;;5.00;99.90;;;;;;4998651;28;20820;-75
2022/12/04 10:31:49;;;;;;;30.63;27.53;;;4.90;99.90;;;;;;4999403;28;20561;-76
2022/12/04 10:34:19;;;;;;;31.33;28.40;;;5.00;99.90;;;;;;4998230;28;20458;-74
2022/12/04 10:36:51;;;;;;;29.43;26.70;;;4.90;99.90;;;;;;4997282;28;20486;-74
2022/12/04 10:39:24;;;;;;;26.90;24.40;;;5.00;99.90;;;;;;4998029;28;20442;-75
2022/12/04 10:41:57;;;;;;;27.47;24.90;;;4.90;99.90;;;;;;4995200;28;20475;-75
2022/12/04 10:44:24;;;;;;;27.40;24.53;;;4.80;99.90;;;;;;4997421;28;20449;-75
2022/12/04 10:46:55;;;;;;;26.53;24.43;;;4.90;99.90;;;;;;4999207;28;20947;-77
2022/12/04 10:49:26;;;;;;;26.60;24.23;;;4.80;99.90;;;;;;4999570;28;20541;-76
2022/12/04 10:51:54;;;;;;;27.50;25.00;;;4.90;99.90;;;;;;4995927;28;20990;-76
2022/12/04 10:54:25;;;;;;;26.07;23.87;;;5.10;99.90;;;;;;4997694;28;20446;-76
2022/12/04 10:56:55;;;;;;;25.67;23.13;;;5.20;99.90;;;;;;4995005;28;20943;-76
2022/12/04 10:59:23;;;;;;;28.00;25.50;;;5.30;99.90;;;;;;4997554;28;20442;-75
2022/12/04 11:01:51;;;;;;;26.17;23.87;;;5.30;99.90;;;;;;4994520;28;20477;-75
2022/12/04 11:04:25;;;;;;;28.17;25.40;;;5.40;99.90;;;;;;4997551;28;20939;-75
2022/12/04 11:06:59;;;;;;;26.10;23.63;;;5.10;99.90;;;;;;4995101;28;20439;-75
2022/12/04 11:09:28;;;;;;;27.23;24.40;;;5.20;99.90;;;;;;4997287;28;20889;-76
2022/12/04 11:12:06;;;;;;;27.43;23.90;;;5.20;99.90;;;;;;4998363;28;20920;-75
2022/12/04 11:14:33;;;;;;;25.90;23.40;;;5.00;99.90;;;;;;4995528;28;20466;-75
2022/12/04 11:17:02;;;;;;;26.80;24.20;;;5.00;99.90;;;;;;4997281;28;20942;-75
2022/12/04 11:19:31;;;;;;;28.23;25.70;;;5.00;99.90;;;;;;4998710;28;20449;-74
2022/12/04 11:22:04;;;;;;;27.70;25.23;;;5.00;99.90;;;;;;4997751;28;20487;-75
2022/12/04 11:24:33;;;;;;;26.70;24.20;;;5.00;99.90;;;;;;4994490;28;20447;-76
2022/12/04 11:27:03;;;;;;;29.00;26.20;;;5.10;99.90;;;;;;4997013;28;20588;-75
2022/12/04 11:29:33;;;;;;;27.47;25.13;;;5.00;99.90;;;;;;4998515;28;20491;-75
2022/12/04 11:32:00;;;;;;;27.70;25.20;;;4.90;99.90;;;;;;4998221;28;20437;-76
2022/12/04 11:34:34;;;;;;;27.67;25.07;;;4.90;99.90;;;;;;4996574;28;20562;-75
2022/12/04 11:37:01;;;;;;;27.67;24.97;;;5.00;99.90;;;;;;4997019;28;20458;-74
2022/12/04 11:39:32;;;;;;;27.13;24.70;;;5.20;99.90;;;;;;4998910;28;20445;-75
2022/12/04 11:42:16;;;;;;;27.97;25.27;;;5.30;99.90;;;;;;4998201;28;20541;-75
2022/12/04 11:44:50;;;;;;;28.40;25.90;;;5.30;99.90;;;;;;4998023;28;20450;-76
2022/12/04 11:47:19;;;;;;;27.90;25.13;;;5.30;99.90;;;;;;4996462;28;20448;-76
2022/12/04 11:49:59;;;;;;;28.10;25.60;;;5.40;99.90;;;;;;4996543;28;20442;-76
2022/12/04 11:52:38;;;;;;;26.50;24.10;;;5.40;99.90;;;;;;4996756;28;20453;-76
2022/12/04 11:55:13;;;;;;;28.83;25.97;;;5.40;99.90;;;;;;4996626;28;20447;-76
2022/12/04 11:57:54;;;;;;;29.30;26.40;;;5.50;99.90;;;;;;4997265;28;20452;-76
2022/12/04 12:00:31;;;;;;;27.03;24.63;;;5.70;99.90;;;;;;4996972;28;20450;-77
2022/12/04 12:03:19;;;;;;;27.10;24.70;;;5.40;99.90;;;;;;4995988;28;21082;-76
2022/12/04 12:06:25;;;;;;;27.50;24.67;;;5.60;99.90;;;;;;4998114;28;20537;-75
2022/12/04 12:09:23;;;;;;;27.67;25.00;;;5.60;99.90;;;;;;4994676;28;20624;-75
2022/12/04 12:11:57;;;;;;;27.27;24.87;;;5.70;99.90;;;;;;4994025;28;20533;-75
2022/12/04 12:14:39;;;;;;;26.37;23.87;;;5.80;99.90;;;;;;4996379;28;20940;-75
2022/12/04 12:20:42;;;;;;;26.03;23.77;;;5.80;99.90;;;;;;4902408;28;20934;-77
2022/12/04 12:23:59;;;;;;;27.43;24.73;;;5.80;99.90;;;;;;5002144;28;20449;-77
2022/12/04 12:33:55;;;;;;;25.70;23.33;;;5.90;99.90;;;;;;4875469;29;20572;-76
2022/12/04 12:39:49;;;;;;;30.13;27.00;;;6.30;99.90;;;;;;4967069;28;20873;-76
2022/12/04 12:42:48;;;;;;;28.17;25.67;;;6.00;99.90;;;;;;4960089;28;20480;-76
2022/12/04 12:45:36;;;;;;;28.10;25.57;;;5.80;99.90;;;;;;4978636;28;20447;-75
2022/12/04 12:48:32;;;;;;;26.90;24.30;;;5.90;99.90;;;;;;4979485;28;20614;-76
2022/12/04 12:51:26;;;;;;;26.63;24.10;;;6.10;99.90;;;;;;4980211;28;20475;-76
2022/12/04 12:53:56;;;;;;;27.03;24.37;;;6.10;99.90;;;;;;4978349;28;20523;-74
2022/12/04 12:56:39;;;;;;;27.00;24.40;;;5.80;99.90;;;;;;4980418;28;20453;-77
2022/12/04 13:08:49;;;;;;;27.13;24.80;;;5.70;99.90;;;;;;4973238;28;20980;-76
2022/12/04 13:11:20;;;;;;;27.77;24.80;;;5.80;99.90;;;;;;4940260;28;20460;-75
2022/12/04 13:13:51;;;;;;;28.80;26.20;;;5.60;99.90;;;;;;4979529;28;20476;-75
2022/12/04 13:16:43;;;;;;;26.87;24.23;;;5.60;99.90;;;;;;4980376;28;20439;-76
2022/12/04 13:19:18;;;;;;;27.60;25.00;;;5.60;99.90;;;;;;4981468;28;20944;-77
2022/12/04 13:21:49;;;;;;;25.80;23.27;;;5.50;99.90;;;;;;4981013;28;20478;-76
2022/12/04 13:24:49;;;;;;;27.67;24.87;;;5.50;99.90;;;;;;4978195;28;20447;-76
2022/12/04 13:27:26;;;;;;;27.13;24.53;;;5.50;99.90;;;;;;4977473;28;20464;-75
2022/12/04 13:30:04;;;;;;;26.50;24.10;;;5.50;99.90;;;;;;4995748;28;20964;-75
2022/12/04 13:33:00;;;;;;;29.40;26.60;;;5.50;99.90;;;;;;4995793;28;20439;-77
2022/12/04 13:35:42;;;;;;;27.67;24.97;;;5.60;99.90;;;;;;5000101;28;20458;-76
2022/12/04 13:38:19;;;;;;;29.47;26.57;;;5.60;99.90;;;;;;4998355;28;20853;-76
2022/12/04 13:40:53;;;;;;;29.97;26.93;;;5.50;99.90;;;;;;4998132;28;20443;-75
2022/12/04 13:43:33;;;;;;;28.77;25.70;;;5.50;99.90;;;;;;4998991;28;20480;-76